Kezdőlap
METAR-TAF:

METAR-TAF

Repülőterek :

Caracas, Venezuela

földrajzi szélesség: 10-36N, földrajzi hosszúság: 066-59W, magasság: 43 m

Jelenlegi meteorológiai megfigyelések

A jelentés 30 perccel ezelõtt készült, 08:00 UTC
Szélcsend
Hőmérséklet 23°C
Páratartalom 94%
Légköri nyomás 1011 hPa
Látótávolság 10 km, vagy több
Szórványos felhőzet 1600 lábon
Szórványos felhőzet 7000 lábon

METAR: SVMI 130800Z 00000KT 9999 SCT016 SCT070 23/22 Q1011

Idő: 04:30 (08:30 UTC)

Előrejelzés

A jelentés 4 órával és 30 perccel ezelõtt készült, 04:00 UTC
Az előrejelzés 13-én 06 óra UTC és 14-én 06 óra UTC között érvényes
Keleti szél 5 kt
Látótávolság 10 km, vagy több
Szakadozott felhőzet 1600 lábon
13-én 06 óra UTC és 13-én 10 óra UTC között ideiglenes
Dél-délnyugati szél 6 kt
Látótávolság: 9000 m
Szakadozott felhőzet 1300 lábon
enyhe szitálás

TAF: SVMI 130400Z 1306/1406 09005KT 9999 BKN016 TX31/1318Z TN24/1308Z TEMPO 1306/1310 21006KT 9000 -DZ BKN013

Meteorológiai megfigyelések és előrejelzések több, mint 4000 repülőtéren (METAR és TAF jelentéseket).

A térképen piros és sárga pontok jelzik az elérhető meteorológiai állomásokat.

Mozgassa az egeret a pont fölött, hogy megjelenjen az állomás neve.

Azután kattintson az időjárási megfigyelések és előrejelzések megtekintéséhez.

A térkép megváltoztatása: kattintson a fekete keresztel jelölt zöld gombra ráközelítéshez, a vonallal jelölt zöld gombra távolításhoz, vagy a zöld nyilakra a szomszédos térképek eléréséhez.


METAR-TAF: